createdAt,value
2023-05-06T00:01:36.186Z,9.60
2023-05-06T00:04:09.287Z,9.56
2023-05-06T00:06:42.164Z,9.51
2023-05-06T00:09:14.583Z,9.37
2023-05-06T00:11:47.979Z,9.25
2023-05-06T00:14:33.385Z,9.36
2023-05-06T00:17:08.335Z,9.35
2023-05-06T00:19:42.008Z,9.32
2023-05-06T00:22:14.307Z,9.26
2023-05-06T00:24:46.623Z,9.23
2023-05-06T00:27:18.745Z,9.12
2023-05-06T00:29:51.158Z,9.16
2023-05-06T00:32:27.759Z,9.16
2023-05-06T00:35:00.283Z,9.14
2023-05-06T00:37:32.329Z,9.00
2023-05-06T00:40:05.297Z,9.12
2023-05-06T00:42:37.250Z,9.08
2023-05-06T00:45:13.283Z,9.10
2023-05-06T00:47:48.338Z,9.14
2023-05-06T00:50:44.063Z,9.18
2023-05-06T00:53:16.528Z,9.13
2023-05-06T00:55:48.640Z,9.11
2023-05-06T00:58:22.940Z,9.15
2023-05-06T01:00:55.716Z,9.22
2023-05-06T01:03:31.706Z,9.29
2023-05-06T01:06:11.613Z,9.26
2023-05-06T01:09:01.284Z,9.23
2023-05-06T01:11:42.186Z,9.19
2023-05-06T01:14:24.900Z,9.22
2023-05-06T01:17:00.630Z,9.19
2023-05-06T01:19:42.517Z,9.10
2023-05-06T01:22:16.904Z,9.09
2023-05-06T01:24:51.851Z,9.14
2023-05-06T01:27:25.354Z,9.12
2023-05-06T01:29:58.411Z,9.14
2023-05-06T01:32:40.076Z,9.20
2023-05-06T01:35:21.906Z,9.16
2023-05-06T01:40:55.213Z,9.12
2023-05-06T01:43:31.809Z,9.01
2023-05-06T01:46:07.753Z,9.04
2023-05-06T01:48:42.569Z,9.02
2023-05-06T01:51:15.088Z,9.10
2023-05-06T01:53:47.011Z,9.05
2023-05-06T01:56:22.328Z,8.94
2023-05-06T01:58:54.288Z,8.99
2023-05-06T02:01:26.775Z,8.92
2023-05-06T02:03:59.364Z,8.99
2023-05-06T02:07:01.712Z,8.86
2023-05-06T02:09:33.950Z,8.77
2023-05-06T02:12:09.594Z,8.77
2023-05-06T02:14:41.796Z,8.65
2023-05-06T02:17:14.373Z,8.58
2023-05-06T02:19:46.371Z,8.55
2023-05-06T02:22:18.921Z,8.51
2023-05-06T02:24:51.009Z,8.54
2023-05-06T02:27:26.092Z,8.43
2023-05-06T02:29:58.197Z,8.44
2023-05-06T02:32:33.079Z,8.41
2023-05-06T02:35:19.937Z,8.35
2023-05-06T02:37:52.451Z,8.33
2023-05-06T02:40:25.490Z,8.29
2023-05-06T02:43:00.630Z,8.25
2023-05-06T02:45:34.006Z,8.24
2023-05-06T02:48:06.523Z,8.23
2023-05-06T02:50:38.855Z,8.13
2023-05-06T02:53:13.575Z,8.17
2023-05-06T02:55:45.227Z,8.25
2023-05-06T02:58:19.948Z,8.13
2023-05-06T03:00:51.705Z,8.05
2023-05-06T03:03:24.527Z,8.12
2023-05-06T03:05:56.245Z,7.98
2023-05-06T03:08:28.724Z,8.04
2023-05-06T03:11:00.473Z,8.04
2023-05-06T03:13:35.085Z,7.96
2023-05-06T03:16:07.088Z,7.95
2023-05-06T03:18:39.211Z,8.03
2023-05-06T03:21:12.648Z,7.96
2023-05-06T03:23:44.903Z,7.81
2023-05-06T03:26:16.669Z,7.80
2023-05-06T03:28:51.528Z,7.71
2023-05-06T03:34:12.694Z,7.76
2023-05-06T03:36:44.365Z,7.89
2023-05-06T03:39:16.652Z,7.95
2023-05-06T03:41:48.523Z,7.92
2023-05-06T03:44:23.587Z,7.87
2023-05-06T03:46:55.299Z,7.83
2023-05-06T03:49:27.405Z,7.80
2023-05-06T03:51:59.250Z,7.79
2023-05-06T03:54:31.389Z,7.68
2023-05-06T03:57:17.948Z,7.64
2023-05-06T03:59:52.609Z,7.58
2023-05-06T04:02:24.505Z,7.66
2023-05-06T04:04:56.764Z,7.60
2023-05-06T04:07:28.516Z,7.53
2023-05-06T04:10:00.808Z,7.57
2023-05-06T04:12:32.509Z,7.53
2023-05-06T04:15:08.073Z,7.50
2023-05-06T04:17:39.894Z,7.50
2023-05-06T04:20:13.215Z,7.57
2023-05-06T04:22:44.973Z,7.50
2023-05-06T04:25:18.766Z,7.50
2023-05-06T04:27:50.427Z,7.57
2023-05-06T04:30:25.385Z,7.66
2023-05-06T04:32:57.185Z,7.62
2023-05-06T04:35:29.313Z,7.58
2023-05-06T04:38:01.346Z,7.72
2023-05-06T04:40:33.853Z,7.66
2023-05-06T04:43:13.727Z,7.56
2023-05-06T04:46:02.160Z,7.55
2023-05-06T04:48:33.947Z,7.66
2023-05-06T04:51:06.294Z,7.69
2023-05-06T04:53:38.542Z,7.72
2023-05-06T04:56:11.732Z,7.73
2023-05-06T04:58:43.867Z,7.76
2023-05-06T05:01:19.683Z,7.66
2023-05-06T05:03:51.703Z,7.72
2023-05-06T05:06:24.609Z,7.84
2023-05-06T05:08:57.131Z,7.90
2023-05-06T05:11:29.658Z,7.81
2023-05-06T05:14:02.392Z,7.88
2023-05-06T05:16:37.760Z,7.91
2023-05-06T05:19:13.654Z,7.88
2023-05-06T05:21:46.130Z,7.86
2023-05-06T05:24:18.157Z,7.84
2023-05-06T05:26:50.613Z,7.88
2023-05-06T05:29:22.891Z,7.99
2023-05-06T05:31:58.066Z,8.01
2023-05-06T05:34:30.173Z,8.04
2023-05-06T05:37:02.579Z,8.05
2023-05-06T05:39:34.916Z,7.89
2023-05-06T05:42:07.746Z,7.97
2023-05-06T05:44:39.838Z,7.86
2023-05-06T05:47:15.269Z,7.91
2023-05-06T05:49:47.374Z,7.86
2023-05-06T05:52:19.833Z,7.97
2023-05-06T05:55:11.473Z,7.97
2023-05-06T05:58:02.530Z,7.97
2023-05-06T06:00:34.617Z,8.04
2023-05-06T06:03:14.965Z,8.01
2023-05-06T06:05:50.089Z,8.07
2023-05-06T06:08:22.516Z,8.11
2023-05-06T06:10:54.573Z,7.96
2023-05-06T06:13:28.892Z,8.08
2023-05-06T06:16:01.827Z,8.05
2023-05-06T06:18:36.970Z,8.10
2023-05-06T06:21:09.358Z,8.03
2023-05-06T06:23:41.747Z,7.82
2023-05-06T06:26:13.774Z,7.89
2023-05-06T06:28:46.932Z,7.82
2023-05-06T06:31:19.259Z,7.69
2023-05-06T06:33:54.360Z,7.79
2023-05-06T06:36:26.325Z,7.74
2023-05-06T06:38:58.846Z,7.82
2023-05-06T06:41:31.286Z,7.75
2023-05-06T06:44:03.666Z,7.81
2023-05-06T06:46:35.684Z,7.87
2023-05-06T06:49:10.878Z,7.93
2023-05-06T06:51:42.968Z,7.94
2023-05-06T06:54:15.552Z,8.02
2023-05-06T06:56:47.666Z,8.11
2023-05-06T06:59:20.074Z,8.04
2023-05-06T07:01:52.133Z,8.04
2023-05-06T07:04:27.713Z,8.00
2023-05-06T07:06:59.840Z,8.03
2023-05-06T07:09:34.362Z,8.06
2023-05-06T07:12:08.296Z,8.11
2023-05-06T07:14:40.708Z,8.00
2023-05-06T07:17:12.942Z,8.04
2023-05-06T07:19:48.088Z,7.99
2023-05-06T07:22:20.770Z,7.95
2023-05-06T07:24:53.297Z,7.90
2023-05-06T07:27:25.577Z,7.92
2023-05-06T07:29:58.048Z,7.89
2023-05-06T07:32:30.147Z,8.01
2023-05-06T07:35:06.110Z,8.03
2023-05-06T07:37:38.132Z,8.05
2023-05-06T07:40:12.006Z,8.12
2023-05-06T08:36:57.282Z,8.31
2023-05-06T08:39:31.330Z,8.30
2023-05-06T08:42:05.202Z,8.28
2023-05-06T08:44:38.581Z,7.99
2023-05-06T08:47:11.289Z,7.97
2023-05-06T08:49:44.162Z,7.94
2023-05-06T08:52:20.464Z,8.08
2023-05-06T08:55:01.824Z,8.22
2023-05-06T08:57:34.909Z,8.15
2023-05-06T09:00:11.425Z,8.06
2023-05-06T09:02:43.841Z,8.21
2023-05-06T09:05:16.707Z,8.24
2023-05-06T09:07:52.104Z,8.30
2023-05-06T09:10:24.881Z,8.40
2023-05-06T09:12:59.316Z,8.48
2023-05-06T09:15:43.421Z,8.43
2023-05-06T09:18:15.443Z,8.56
2023-05-06T09:20:49.900Z,8.50
2023-05-06T09:23:26.545Z,8.43
2023-05-06T09:26:02.226Z,8.48
2023-05-06T09:28:37.108Z,8.56
2023-05-06T09:31:12.259Z,8.58
2023-05-06T09:33:44.588Z,8.48
2023-05-06T09:36:17.013Z,8.61
2023-05-06T09:38:51.705Z,8.52
2023-05-06T09:41:26.274Z,8.52
2023-05-06T09:43:59.807Z,8.54
2023-05-06T09:46:33.420Z,8.58
2023-05-06T09:49:21.054Z,8.76
2023-05-06T09:51:53.494Z,8.82
2023-05-06T09:54:28.071Z,8.85
2023-05-06T09:57:06.893Z,8.87
2023-05-06T09:59:43.066Z,8.78
2023-05-06T10:02:17.609Z,8.74
2023-05-06T10:04:52.417Z,8.63
2023-05-06T10:07:29.205Z,8.83
2023-05-06T10:10:05.628Z,8.91
2023-05-06T10:12:42.351Z,8.95
2023-05-06T10:15:14.393Z,8.97
2023-05-06T10:17:50.809Z,8.81
2023-05-06T10:20:27.857Z,8.75
2023-05-06T10:23:07.312Z,8.63
2023-05-06T10:25:46.127Z,8.64
2023-05-06T10:28:25.396Z,8.63
2023-05-06T10:31:03.067Z,8.79
2023-05-06T10:33:35.565Z,8.82
2023-05-06T10:36:18.761Z,8.74
2023-05-06T10:38:56.951Z,8.76
2023-05-06T10:41:32.420Z,8.60
2023-05-06T10:44:07.551Z,8.49
2023-05-06T10:47:00.973Z,8.63
2023-05-06T10:49:33.381Z,8.75
2023-05-06T10:52:18.755Z,8.85
2023-05-06T10:54:54.097Z,8.61
2023-05-06T10:57:29.061Z,8.63
2023-05-06T11:00:01.702Z,8.62
2023-05-06T11:02:34.997Z,8.59
2023-05-06T11:05:09.023Z,8.69
2023-05-06T11:07:41.318Z,8.64
2023-05-06T11:10:37.721Z,8.69
2023-05-06T11:13:27.266Z,8.71
2023-05-06T11:16:02.246Z,8.68
2023-05-06T11:18:47.299Z,8.76
2023-05-06T11:21:41.063Z,8.66
2023-05-06T11:24:17.218Z,8.64
2023-05-06T11:26:51.268Z,8.69
2023-05-06T11:29:26.378Z,8.55
2023-05-06T11:31:59.076Z,8.66
2023-05-06T11:34:32.594Z,8.68
2023-05-06T11:37:07.291Z,8.74
2023-05-06T11:39:42.860Z,8.62
2023-05-06T11:42:17.151Z,8.73
2023-05-06T11:44:56.398Z,8.78
2023-05-06T11:47:35.135Z,8.76
2023-05-06T11:50:11.905Z,8.73
2023-05-06T11:52:44.861Z,8.80
2023-05-06T11:55:17.623Z,8.87
2023-05-06T11:57:50.313Z,8.85
2023-05-06T12:00:27.279Z,8.84
2023-05-06T12:03:00.234Z,8.89
2023-05-06T12:05:34.582Z,8.96
2023-05-06T12:08:16.306Z,8.92
2023-05-06T12:10:57.051Z,8.94
2023-05-06T12:13:30.911Z,8.77
2023-05-06T12:16:06.189Z,8.79
2023-05-06T12:18:41.016Z,8.83
2023-05-06T12:21:17.576Z,8.73
2023-05-06T12:23:56.507Z,8.50
2023-05-06T12:26:30.957Z,8.57
2023-05-06T12:29:11.140Z,8.62
2023-05-06T12:31:47.611Z,8.71
2023-05-06T12:34:20.537Z,8.69
2023-05-06T12:36:52.401Z,8.89
2023-05-06T12:39:24.602Z,8.91
2023-05-06T12:41:57.464Z,8.81
2023-05-06T12:44:39.601Z,8.55
2023-05-06T12:47:23.876Z,8.58
2023-05-06T12:49:58.730Z,8.74
2023-05-06T12:52:32.343Z,8.68
2023-05-06T12:55:05.238Z,8.61
2023-05-06T12:57:37.586Z,8.69
2023-05-06T13:00:20.521Z,8.73
2023-05-06T13:02:56.244Z,8.80
2023-05-06T13:05:28.843Z,8.91
2023-05-06T13:08:04.860Z,8.98
2023-05-06T13:10:37.079Z,8.93
2023-05-06T13:13:09.063Z,8.90
2023-05-06T13:15:44.181Z,8.91
2023-05-06T13:18:18.941Z,8.91
2023-05-06T13:20:51.223Z,8.73
2023-05-06T13:23:24.732Z,8.84
2023-05-06T13:26:04.073Z,8.76
2023-05-06T13:28:39.697Z,8.75
2023-05-06T13:31:13.954Z,8.95
2023-05-06T13:33:48.527Z,8.99
2023-05-06T13:36:20.781Z,8.97
2023-05-06T13:38:53.138Z,8.96
2023-05-06T13:41:28.560Z,9.03
2023-05-06T13:44:03.098Z,8.97
2023-05-06T13:46:36.071Z,8.94
2023-05-06T13:49:10.582Z,9.04
2023-05-06T13:51:42.928Z,9.07
2023-05-06T13:54:20.596Z,9.15
2023-05-06T13:56:52.970Z,9.22
2023-05-06T13:59:24.843Z,9.13
2023-05-06T14:01:57.868Z,8.99
2023-05-06T14:04:32.761Z,9.11
2023-05-06T14:07:05.467Z,9.27
2023-05-06T14:09:37.721Z,9.50
2023-05-06T14:12:10.498Z,9.47
2023-05-06T14:14:42.920Z,9.25
2023-05-06T14:17:24.088Z,9.24
2023-05-06T14:19:58.982Z,9.20
2023-05-06T14:22:31.921Z,9.14
2023-05-06T14:25:04.076Z,9.15
2023-05-06T14:27:36.735Z,9.15
2023-05-06T14:30:10.527Z,9.05
2023-05-06T14:32:43.166Z,9.07
2023-05-06T14:35:18.139Z,9.09
2023-05-06T14:37:50.864Z,9.05
2023-05-06T14:40:25.976Z,9.17
2023-05-06T14:42:59.036Z,9.16
2023-05-06T14:45:31.540Z,9.13
2023-05-06T14:50:47.397Z,9.12
2023-05-06T14:53:20.385Z,9.14
2023-05-06T14:55:56.824Z,9.22
2023-05-06T14:58:29.521Z,9.33
2023-05-06T15:01:03.801Z,9.35
2023-05-06T15:03:37.730Z,9.20
2023-05-06T15:06:15.311Z,9.09
2023-05-06T15:08:51.434Z,9.00
2023-05-06T15:11:23.567Z,8.99
2023-05-06T15:13:56.103Z,8.85
2023-05-06T15:16:28.270Z,8.85
2023-05-06T15:19:01.005Z,8.79
2023-05-06T15:21:36.844Z,8.72
2023-05-06T15:24:10.455Z,8.77
2023-05-06T15:26:42.844Z,8.78
2023-05-06T15:29:15.496Z,8.63
2023-05-06T15:31:48.219Z,8.72
2023-05-06T15:34:21.150Z,8.74
2023-05-06T15:36:57.096Z,8.69
2023-05-06T15:39:30.708Z,8.71
2023-05-06T15:42:06.664Z,8.79
2023-05-06T15:44:39.646Z,8.77
2023-05-06T15:47:23.665Z,8.83
2023-05-06T15:52:33.987Z,8.92
2023-05-06T15:55:15.331Z,8.96
2023-05-06T15:57:49.743Z,8.99
2023-05-06T16:00:24.745Z,8.96
2023-05-06T16:02:58.381Z,8.87
2023-05-06T16:05:32.342Z,8.92
2023-05-06T16:08:06.967Z,8.84
2023-05-06T16:10:39.182Z,8.80
2023-05-06T16:13:11.695Z,8.80
2023-05-06T16:15:47.527Z,8.77
2023-05-06T16:18:19.408Z,8.74
2023-05-06T16:20:54.572Z,8.74
2023-05-06T16:23:29.118Z,8.67
2023-05-06T16:26:01.502Z,8.65
2023-05-06T16:28:33.327Z,8.70
2023-05-06T16:31:08.890Z,8.61
2023-05-06T16:33:40.791Z,8.67
2023-05-06T16:36:13.222Z,8.75
2023-05-06T16:38:47.740Z,8.78
2023-05-06T16:41:25.300Z,8.80
2023-05-06T16:43:57.923Z,8.80
2023-05-06T16:46:30.372Z,8.82
2023-05-06T16:49:04.160Z,8.82
2023-05-06T16:51:39.484Z,8.74
2023-05-06T16:54:13.890Z,8.78
2023-05-06T16:56:51.884Z,8.72
2023-05-06T16:59:24.628Z,8.75
2023-05-06T17:01:57.597Z,8.72
2023-05-06T17:04:29.595Z,8.74
2023-05-06T17:07:01.907Z,8.79
2023-05-06T17:09:36.446Z,8.74
2023-05-06T17:12:09.287Z,8.78
2023-05-06T17:14:41.844Z,8.86
2023-05-06T17:17:25.173Z,8.86
2023-05-06T17:20:02.172Z,8.89
2023-05-06T17:22:38.702Z,8.79
2023-05-06T17:25:14.806Z,8.83
2023-05-06T17:27:47.716Z,8.76
2023-05-06T17:30:21.204Z,8.66
2023-05-06T17:32:53.963Z,8.59
2023-05-06T17:35:26.820Z,8.54
2023-05-06T17:37:59.916Z,8.55
2023-05-06T17:40:34.490Z,8.66
2023-05-06T17:43:11.858Z,8.58
2023-05-06T17:45:48.312Z,8.62
2023-05-06T17:48:21.338Z,8.66
2023-05-06T17:50:56.075Z,8.61
2023-05-06T17:53:28.618Z,8.66
2023-05-06T17:56:06.481Z,8.72
2023-05-06T17:58:42.165Z,8.69
2023-05-06T18:01:14.341Z,8.74
2023-05-06T18:03:53.737Z,8.62
2023-05-06T18:06:27.474Z,8.69
2023-05-06T18:09:04.185Z,8.75
2023-05-06T18:11:41.219Z,8.77
2023-05-06T18:14:13.417Z,8.72
2023-05-06T18:16:45.814Z,8.79
2023-05-06T18:19:18.455Z,8.82
2023-05-06T18:21:50.175Z,8.69
2023-05-06T18:24:23.897Z,8.70
2023-05-06T18:26:58.620Z,8.65
2023-05-06T18:29:32.788Z,8.67
2023-05-06T18:32:07.105Z,8.68
2023-05-06T18:34:39.420Z,8.66
2023-05-06T18:37:24.698Z,8.63
2023-05-06T18:39:56.923Z,8.76
2023-05-06T18:42:31.991Z,8.73
2023-05-06T18:45:07.467Z,8.73
2023-05-06T18:47:40.514Z,8.62
2023-05-06T18:50:13.477Z,8.54
2023-05-06T18:52:45.413Z,8.58
2023-05-06T18:55:17.859Z,8.68
2023-05-06T18:57:52.639Z,8.72
2023-05-06T19:00:27.281Z,8.67
2023-05-06T19:02:58.704Z,8.56
2023-05-06T19:05:38.530Z,8.50
2023-05-06T19:08:10.693Z,8.56
2023-05-06T19:10:42.628Z,8.62
2023-05-06T19:13:16.791Z,8.59
2023-05-06T19:15:49.521Z,8.67
2023-05-06T19:18:21.365Z,8.63
2023-05-06T19:20:54.144Z,8.55
2023-05-06T19:23:27.090Z,8.50
2023-05-06T19:25:58.800Z,8.47
2023-05-06T19:28:32.845Z,8.50
2023-05-06T19:31:04.810Z,8.54
2023-05-06T19:33:36.373Z,8.54
2023-05-06T19:36:10.807Z,8.53
2023-05-06T19:38:42.235Z,8.50
2023-05-06T19:41:14.448Z,8.32
2023-05-06T19:43:48.450Z,8.44
2023-05-06T19:46:22.529Z,8.52
2023-05-06T19:48:53.698Z,8.62
2023-05-06T19:51:25.994Z,8.57
2023-05-06T19:53:57.802Z,8.74
2023-05-06T19:56:29.420Z,8.66
2023-05-06T19:59:03.496Z,8.60
2023-05-06T20:01:37.439Z,8.59
2023-05-06T20:04:10.324Z,8.68
2023-05-06T20:06:42.286Z,8.57
2023-05-06T20:09:14.039Z,8.39
2023-05-06T20:11:47.705Z,8.50
2023-05-06T20:14:23.288Z,8.57
2023-05-06T20:16:55.990Z,8.68
2023-05-06T20:19:30.805Z,8.65
2023-05-06T20:22:03.959Z,8.67
2023-05-06T20:24:36.950Z,8.66
2023-05-06T20:27:09.486Z,8.68
2023-05-06T20:29:46.309Z,8.71
2023-05-06T20:32:18.485Z,8.65
2023-05-06T20:34:50.734Z,8.62
2023-05-06T20:37:24.417Z,8.48
2023-05-06T20:39:56.249Z,8.43
2023-05-06T20:42:31.004Z,8.36
2023-05-06T20:45:06.207Z,8.38
2023-05-06T20:47:38.500Z,8.49
2023-05-06T20:50:17.300Z,8.50
2023-05-06T20:52:50.592Z,8.46
2023-05-06T20:55:23.656Z,8.43
2023-05-06T20:57:55.654Z,8.49
2023-05-06T21:00:29.659Z,8.40
2023-05-06T21:03:01.890Z,8.46
2023-05-06T21:05:33.814Z,8.51
2023-05-06T21:08:05.808Z,8.56
2023-05-06T21:10:37.808Z,8.49
2023-05-06T21:13:09.736Z,8.60
2023-05-06T21:15:44.468Z,8.56
2023-05-06T21:18:17.224Z,8.44
2023-05-06T21:20:48.992Z,8.44
2023-05-06T21:23:21.321Z,8.52
2023-05-06T21:25:53.010Z,8.50
2023-05-06T21:28:25.239Z,8.50
2023-05-06T21:30:59.890Z,8.57
2023-05-06T21:33:32.054Z,8.62
2023-05-06T21:36:03.777Z,8.57
2023-05-06T21:38:35.633Z,8.59
2023-05-06T21:41:07.350Z,8.56
2023-05-06T21:43:39.078Z,8.51
2023-05-06T21:46:13.469Z,8.60
2023-05-06T21:48:45.824Z,8.54
2023-05-06T21:51:17.229Z,8.63
2023-05-06T21:53:54.125Z,8.54
2023-05-06T21:56:25.739Z,8.46
2023-05-06T21:58:58.600Z,8.55
2023-05-06T22:01:32.810Z,8.56
2023-05-06T22:04:11.572Z,8.63
2023-05-06T22:06:43.831Z,8.59
2023-05-06T22:09:15.770Z,8.51
2023-05-06T22:11:47.566Z,8.54
2023-05-06T22:14:24.284Z,8.56
2023-05-06T22:17:04.823Z,8.60
2023-05-06T22:19:37.086Z,8.57
2023-05-06T22:22:09.139Z,8.59
2023-05-06T22:24:43.059Z,8.62
2023-05-06T22:27:14.824Z,8.51
2023-05-06T22:29:47.296Z,8.45
2023-05-06T22:32:21.919Z,8.53
2023-05-06T22:34:53.823Z,8.56
2023-05-06T22:37:25.892Z,8.46
2023-05-06T22:39:59.057Z,8.52
2023-05-06T22:42:30.797Z,8.56
2023-05-06T22:45:03.327Z,8.52
2023-05-06T22:47:37.835Z,8.55
2023-05-06T22:50:11.281Z,8.56
2023-05-06T22:52:42.944Z,8.55
2023-05-06T22:55:15.454Z,8.58
2023-05-06T22:57:50.257Z,8.60
2023-05-06T23:00:23.026Z,8.64
2023-05-06T23:02:58.395Z,8.64
2023-05-06T23:05:30.558Z,8.71
2023-05-06T23:08:02.302Z,8.72
2023-05-06T23:10:34.185Z,8.61
2023-05-06T23:13:08.347Z,8.58
2023-05-06T23:15:40.538Z,8.67
2023-05-06T23:18:15.120Z,8.68
2023-05-06T23:20:47.715Z,8.61
2023-05-06T23:23:19.605Z,8.72
2023-05-06T23:25:53.490Z,8.68
2023-05-06T23:28:25.543Z,8.75
2023-05-06T23:30:57.854Z,8.78
2023-05-06T23:33:34.675Z,8.79
2023-05-06T23:36:07.009Z,8.71
2023-05-06T23:38:38.734Z,8.71
2023-05-06T23:41:10.945Z,8.79
2023-05-06T23:43:43.200Z,8.80
2023-05-06T23:46:16.724Z,8.76
2023-05-06T23:48:51.147Z,8.77
2023-05-06T23:51:23.455Z,8.75
2023-05-06T23:53:57.392Z,8.77
2023-05-06T23:56:29.285Z,8.84
2023-05-06T23:59:00.715Z,8.79
